createdAt,value
2022-12-23T00:02:02.719Z,79.19
2022-12-23T00:04:30.717Z,79.30
2022-12-23T00:06:58.379Z,79.24
2022-12-23T00:09:26.128Z,79.15
2022-12-23T00:12:13.731Z,79.16
2022-12-23T00:14:57.428Z,79.17
2022-12-23T00:17:25.135Z,79.24
2022-12-23T00:19:52.808Z,79.28
2022-12-23T00:22:40.497Z,79.20
2022-12-23T00:25:08.577Z,79.29
2022-12-23T00:27:37.842Z,79.37
2022-12-23T00:30:08.067Z,79.34
2022-12-23T00:32:36.343Z,79.19
2022-12-23T00:35:04.345Z,79.30
2022-12-23T00:37:32.423Z,79.21
2022-12-23T00:40:15.984Z,79.25
2022-12-23T00:42:59.617Z,79.28
2022-12-23T00:45:27.419Z,79.19
2022-12-23T00:48:11.122Z,79.07
2022-12-23T00:50:40.142Z,79.18
2022-12-23T00:53:08.053Z,79.29
2022-12-23T00:55:35.817Z,79.26
2022-12-23T00:58:03.626Z,79.33
2022-12-23T01:00:47.741Z,79.25
2022-12-23T01:03:31.770Z,79.28
2022-12-23T01:06:01.145Z,79.31
2022-12-23T01:08:28.949Z,79.31
2022-12-23T01:10:56.703Z,79.37
2022-12-23T01:13:24.421Z,79.45
2022-12-23T01:15:52.164Z,79.54
2022-12-23T01:18:19.899Z,79.37
2022-12-23T01:20:47.611Z,79.33
2022-12-23T01:23:15.391Z,79.17
2022-12-23T01:25:43.095Z,79.27
2022-12-23T01:28:10.841Z,79.23
2022-12-23T01:30:38.526Z,79.21
2022-12-23T01:33:06.297Z,79.26
2022-12-23T01:35:36.453Z,79.03
2022-12-23T01:38:04.189Z,79.03
2022-12-23T01:40:37.319Z,79.15
2022-12-23T01:43:05.087Z,79.15
2022-12-23T01:45:33.447Z,79.20
2022-12-23T01:48:06.724Z,79.06
2022-12-23T01:50:38.684Z,79.23
2022-12-23T01:53:19.799Z,79.29
2022-12-23T01:56:03.526Z,79.14
2022-12-23T01:58:51.239Z,79.03
2022-12-23T02:01:35.018Z,79.26
2022-12-23T02:04:06.302Z,79.13
2022-12-23T02:06:55.355Z,79.15
2022-12-23T02:09:42.584Z,79.38
2022-12-23T02:12:41.600Z,79.26
2022-12-23T02:15:44.142Z,79.12
2022-12-23T02:18:26.988Z,79.13
2022-12-23T02:21:27.650Z,79.10
2022-12-23T02:23:58.745Z,79.40
2022-12-23T02:26:46.523Z,79.28
2022-12-23T02:29:46.325Z,79.20
2022-12-23T02:32:55.167Z,79.07
2022-12-23T02:35:49.008Z,79.12
2022-12-23T02:38:23.948Z,79.31
2022-12-23T02:40:57.016Z,79.28
2022-12-23T02:43:43.707Z,79.44
2022-12-23T02:46:14.025Z,79.25
2022-12-23T02:49:00.642Z,79.16
2022-12-23T02:51:34.081Z,79.33
2022-12-23T02:54:08.152Z,79.26
2022-12-23T02:56:39.708Z,79.23
2022-12-23T02:59:17.288Z,79.16
2022-12-23T03:01:46.203Z,79.14
2022-12-23T03:04:14.483Z,79.03
2022-12-23T03:06:46.338Z,78.93
2022-12-23T03:09:32.577Z,79.07
2022-12-23T03:12:36.445Z,78.98
2022-12-23T03:15:09.858Z,79.15
2022-12-23T03:18:09.426Z,78.99
2022-12-23T03:20:53.063Z,78.92
2022-12-23T03:23:29.351Z,78.97
2022-12-23T03:26:08.863Z,78.94
2022-12-23T03:28:57.954Z,79.01
2022-12-23T03:31:29.700Z,79.00
2022-12-23T03:34:03.816Z,79.04
2022-12-23T03:36:45.904Z,79.09
2022-12-23T03:39:19.532Z,79.06
2022-12-23T03:42:01.003Z,78.96
2022-12-23T03:44:35.476Z,78.98
2022-12-23T03:47:13.827Z,79.03
2022-12-23T03:49:47.478Z,78.97
2022-12-23T03:52:21.699Z,78.88
2022-12-23T03:54:59.211Z,78.97
2022-12-23T03:57:46.339Z,78.87
2022-12-23T04:00:14.197Z,78.66
2022-12-23T04:02:52.398Z,78.85
2022-12-23T04:05:27.123Z,78.87
2022-12-23T04:08:20.278Z,78.82
2022-12-23T04:10:48.616Z,78.87
2022-12-23T04:13:16.305Z,78.75
2022-12-23T04:15:44.373Z,78.76
2022-12-23T04:18:12.217Z,78.79
2022-12-23T04:20:40.016Z,78.96
2022-12-23T04:23:07.700Z,78.94
2022-12-23T04:25:35.421Z,79.08
2022-12-23T04:28:03.229Z,79.07
2022-12-23T04:30:34.470Z,79.27
2022-12-23T04:33:02.802Z,79.11
2022-12-23T04:35:31.014Z,79.15
2022-12-23T04:37:58.705Z,79.02
2022-12-23T04:40:26.442Z,78.95
2022-12-23T04:42:54.102Z,79.18
2022-12-23T04:45:21.737Z,79.14
2022-12-23T04:47:49.476Z,78.99
2022-12-23T04:50:17.782Z,79.05
2022-12-23T04:52:45.470Z,79.01
2022-12-23T04:55:13.175Z,78.97
2022-12-23T04:57:40.978Z,79.02
2022-12-23T05:00:09.334Z,78.80
2022-12-23T05:02:37.160Z,78.85
2022-12-23T05:05:05.276Z,78.92
2022-12-23T05:07:32.931Z,78.74
2022-12-23T05:10:02.408Z,78.89
2022-12-23T05:12:31.239Z,78.98
2022-12-23T05:14:59.150Z,79.07
2022-12-23T05:17:26.874Z,79.08
2022-12-23T05:19:54.543Z,78.85
2022-12-23T05:22:22.218Z,78.77
2022-12-23T05:24:49.868Z,78.69
2022-12-23T05:27:17.603Z,78.59
2022-12-23T05:29:45.279Z,78.90
2022-12-23T05:32:13.004Z,79.02
2022-12-23T05:34:40.683Z,78.73
2022-12-23T05:37:08.430Z,78.85
2022-12-23T05:39:36.321Z,78.67
2022-12-23T05:42:04.143Z,78.80
2022-12-23T05:44:31.941Z,78.87
2022-12-23T05:47:00.085Z,78.85
2022-12-23T05:49:27.796Z,78.91
2022-12-23T05:51:55.549Z,78.72
2022-12-23T05:54:23.321Z,78.72
2022-12-23T05:56:51.009Z,78.77
2022-12-23T05:59:19.722Z,78.85
2022-12-23T06:01:47.456Z,79.01
2022-12-23T06:04:15.248Z,78.85
2022-12-23T06:06:42.970Z,78.89
2022-12-23T06:09:10.751Z,78.85
2022-12-23T06:11:38.436Z,78.82
2022-12-23T06:14:07.409Z,78.81
2022-12-23T06:16:35.254Z,78.85
2022-12-23T06:19:03.580Z,78.94
2022-12-23T06:21:31.923Z,78.86
2022-12-23T06:23:59.682Z,78.71
2022-12-23T06:26:27.645Z,78.77
2022-12-23T06:28:55.366Z,78.78
2022-12-23T06:31:23.138Z,78.81
2022-12-23T06:33:50.947Z,78.97
2022-12-23T06:36:19.440Z,78.70
2022-12-23T06:38:47.135Z,78.95
2022-12-23T06:41:14.872Z,78.72
2022-12-23T06:43:42.634Z,78.75
2022-12-23T06:46:10.368Z,78.82
2022-12-23T06:48:38.137Z,78.86
2022-12-23T06:51:05.990Z,78.88
2022-12-23T06:53:33.724Z,78.87
2022-12-23T06:56:03.106Z,78.85
2022-12-23T06:58:31.133Z,78.85
2022-12-23T07:00:58.862Z,78.74
2022-12-23T07:03:26.713Z,78.86
2022-12-23T07:05:54.402Z,78.91
2022-12-23T07:08:22.319Z,78.85
2022-12-23T07:10:50.167Z,78.70
2022-12-23T07:13:18.056Z,78.64
2022-12-23T07:15:45.739Z,78.67
2022-12-23T07:18:13.904Z,78.92
2022-12-23T07:20:41.672Z,78.80
2022-12-23T07:23:09.424Z,78.75
2022-12-23T07:25:37.067Z,78.68
2022-12-23T07:28:05.196Z,78.82
2022-12-23T07:30:32.927Z,78.65
2022-12-23T07:33:00.577Z,78.76
2022-12-23T07:35:28.518Z,78.83
2022-12-23T07:37:56.632Z,78.81
2022-12-23T07:40:26.942Z,78.85
2022-12-23T07:42:57.119Z,78.62
2022-12-23T07:45:28.987Z,78.54
2022-12-23T07:47:59.021Z,78.67
2022-12-23T07:50:27.913Z,78.87
2022-12-23T07:52:56.006Z,79.06
2022-12-23T07:55:23.832Z,78.96
2022-12-23T07:57:52.340Z,78.86
2022-12-23T08:00:20.992Z,78.78
2022-12-23T08:02:48.850Z,78.78
2022-12-23T08:05:16.943Z,78.90
2022-12-23T08:07:45.305Z,78.85
2022-12-23T08:10:13.255Z,78.73
2022-12-23T08:12:40.977Z,78.88
2022-12-23T08:15:09.256Z,78.70
2022-12-23T08:17:36.935Z,78.61
2022-12-23T08:20:05.076Z,78.80
2022-12-23T08:22:32.741Z,78.93
2022-12-23T08:25:00.473Z,78.76
2022-12-23T08:27:28.426Z,78.95
2022-12-23T08:29:56.200Z,78.93
2022-12-23T08:32:27.512Z,78.83
2022-12-23T08:35:01.909Z,78.90
2022-12-23T08:37:30.126Z,78.83
2022-12-23T08:39:58.033Z,78.89
2022-12-23T08:42:26.122Z,78.73
2022-12-23T08:44:55.758Z,78.81
2022-12-23T08:47:23.694Z,79.00
2022-12-23T08:49:51.716Z,78.98
2022-12-23T08:52:19.637Z,78.99
2022-12-23T08:54:47.722Z,78.81
2022-12-23T08:57:18.122Z,78.81
2022-12-23T08:59:47.072Z,78.81
2022-12-23T09:02:14.997Z,78.83
2022-12-23T09:04:42.922Z,78.90
2022-12-23T09:07:10.662Z,78.97
2022-12-23T09:09:38.447Z,78.94
2022-12-23T09:12:06.304Z,78.89
2022-12-23T09:14:34.020Z,78.98
2022-12-23T09:17:01.711Z,78.93
2022-12-23T09:19:29.357Z,79.00
2022-12-23T09:21:57.000Z,79.14
2022-12-23T09:24:24.664Z,79.12
2022-12-23T09:26:52.381Z,79.12
2022-12-23T09:29:20.100Z,79.07
2022-12-23T09:31:47.797Z,79.02
2022-12-23T09:34:15.570Z,79.03
2022-12-23T09:36:43.328Z,79.00
2022-12-23T09:39:11.011Z,79.01
2022-12-23T09:41:48.703Z,79.07
2022-12-23T09:44:43.275Z,79.07
2022-12-23T09:47:15.821Z,78.92
2022-12-23T09:49:52.453Z,79.01
2022-12-23T09:52:27.144Z,78.80
2022-12-23T09:54:55.388Z,78.98
2022-12-23T09:57:36.189Z,78.97
2022-12-23T10:00:14.108Z,78.95
2022-12-23T10:03:01.749Z,78.87
2022-12-23T10:05:47.251Z,78.91
2022-12-23T10:08:29.178Z,78.87
2022-12-23T10:11:02.420Z,78.96
2022-12-23T10:13:35.715Z,79.05
2022-12-23T10:16:30.427Z,79.08
2022-12-23T10:19:29.975Z,79.03
2022-12-23T10:22:06.415Z,79.22
2022-12-23T10:24:40.753Z,79.03
2022-12-23T10:27:25.112Z,79.06
2022-12-23T10:29:52.852Z,79.11
2022-12-23T10:32:26.058Z,79.00
2022-12-23T10:35:36.213Z,79.08
2022-12-23T10:38:30.934Z,79.13
2022-12-23T10:41:30.428Z,79.21
2022-12-23T10:44:20.811Z,78.88
2022-12-23T10:47:24.960Z,78.77
2022-12-23T10:50:18.505Z,79.03
2022-12-23T10:52:47.799Z,78.90
2022-12-23T10:55:33.806Z,78.78
2022-12-23T10:58:18.392Z,78.96
2022-12-23T11:00:53.811Z,78.80
2022-12-23T11:03:23.428Z,78.96
2022-12-23T11:05:53.514Z,79.06
2022-12-23T11:08:23.683Z,79.06
2022-12-23T11:10:51.747Z,79.30
2022-12-23T11:13:46.271Z,79.02
2022-12-23T11:16:30.036Z,79.10
2022-12-23T11:19:03.004Z,78.93
2022-12-23T11:21:32.675Z,78.90
2022-12-23T11:24:23.396Z,78.97
2022-12-23T11:27:06.165Z,79.04
2022-12-23T11:29:47.009Z,79.08
2022-12-23T11:32:24.101Z,78.97
2022-12-23T11:34:52.432Z,78.92
2022-12-23T11:37:28.265Z,78.97
2022-12-23T11:39:56.080Z,79.06
2022-12-23T11:42:29.630Z,79.25
2022-12-23T11:45:00.623Z,79.18
2022-12-23T11:47:36.012Z,79.04
2022-12-23T11:50:20.497Z,79.02
2022-12-23T11:52:53.494Z,79.04
2022-12-23T11:55:29.713Z,78.84
2022-12-23T11:57:57.472Z,78.85
2022-12-23T12:00:30.151Z,78.97
2022-12-23T12:03:04.883Z,79.00
2022-12-23T12:05:40.622Z,79.04
2022-12-23T12:08:16.297Z,78.93
2022-12-23T12:10:44.268Z,78.94
2022-12-23T12:13:39.994Z,78.86
2022-12-23T12:16:33.746Z,78.65
2022-12-23T12:19:12.581Z,78.70
2022-12-23T12:21:40.221Z,78.90
2022-12-23T12:24:22.522Z,78.71
2022-12-23T12:27:00.736Z,78.80
2022-12-23T12:29:51.235Z,78.93
2022-12-23T12:32:50.061Z,78.81
2022-12-23T12:35:53.649Z,78.64
2022-12-23T12:38:26.337Z,78.44
2022-12-23T12:41:11.358Z,78.52
2022-12-23T12:43:48.093Z,78.51
2022-12-23T12:46:18.740Z,78.69
2022-12-23T12:49:20.370Z,78.66
2022-12-23T12:52:19.956Z,78.57
2022-12-23T12:55:13.714Z,78.77
2022-12-23T12:57:41.728Z,78.84
2022-12-23T13:00:21.570Z,78.67
2022-12-23T13:02:59.507Z,78.63
2022-12-23T13:05:54.571Z,78.63
2022-12-23T13:08:30.116Z,78.64
2022-12-23T13:11:37.675Z,78.49
2022-12-23T13:14:19.828Z,78.46
2022-12-23T13:16:50.695Z,78.43
2022-12-23T13:19:29.665Z,78.41
2022-12-23T13:22:03.306Z,78.40
2022-12-23T13:24:33.928Z,78.36
2022-12-23T13:27:07.404Z,78.31
2022-12-23T13:30:07.015Z,78.43
2022-12-23T13:33:06.782Z,78.21
2022-12-23T13:35:51.605Z,78.30
2022-12-23T13:38:35.136Z,78.30
2022-12-23T13:41:34.633Z,78.35
2022-12-23T13:44:07.328Z,78.33
2022-12-23T13:47:06.827Z,78.43
2022-12-23T13:49:34.570Z,78.55
2022-12-23T13:52:05.422Z,78.47
2022-12-23T13:55:04.945Z,78.41
2022-12-23T13:57:47.335Z,78.33
2022-12-23T14:00:18.900Z,78.27
2022-12-23T14:03:05.555Z,78.45
2022-12-23T14:05:41.225Z,78.55
2022-12-23T14:08:27.007Z,78.55
2022-12-23T14:11:03.022Z,78.41
2022-12-23T14:13:40.079Z,78.36
2022-12-23T14:16:10.993Z,78.38
2022-12-23T14:19:02.531Z,78.34
2022-12-23T14:21:33.198Z,78.39
2022-12-23T14:24:22.959Z,78.24
2022-12-23T14:27:21.548Z,78.34
2022-12-23T14:30:17.376Z,78.26
2022-12-23T14:33:03.125Z,77.95
2022-12-23T14:35:40.286Z,77.79
2022-12-23T14:38:16.266Z,77.78
2022-12-23T14:40:50.333Z,77.82
2022-12-23T14:43:52.697Z,77.88
2022-12-23T14:46:50.156Z,77.94
2022-12-23T14:49:38.751Z,78.02
2022-12-23T14:52:44.968Z,78.13
2022-12-23T14:55:31.523Z,78.12
2022-12-23T14:58:05.761Z,78.24
2022-12-23T15:00:46.312Z,78.20
2022-12-23T15:03:16.020Z,78.18
2022-12-23T15:05:43.807Z,78.13
2022-12-23T15:08:30.540Z,78.23
2022-12-23T15:10:59.275Z,78.32
2022-12-23T15:13:29.324Z,78.18
2022-12-23T15:16:01.376Z,78.39
2022-12-23T15:18:29.797Z,78.14
2022-12-23T15:21:18.931Z,78.30
2022-12-23T15:23:50.886Z,78.40
2022-12-23T15:26:20.601Z,78.46
2022-12-23T15:28:48.484Z,78.48
2022-12-23T15:31:26.283Z,78.36
2022-12-23T15:34:05.300Z,78.34
2022-12-23T15:36:37.100Z,78.25
2022-12-23T15:39:14.866Z,78.35
2022-12-23T15:41:45.222Z,78.36
2022-12-23T15:44:19.247Z,78.40
2022-12-23T15:46:47.109Z,78.46
2022-12-23T15:49:15.081Z,78.40
2022-12-23T15:54:57.464Z,78.21
2022-12-23T15:57:28.300Z,78.16
2022-12-23T15:59:58.426Z,78.34
2022-12-23T16:02:59.821Z,78.30
2022-12-23T16:05:32.172Z,78.20
2022-12-23T16:08:16.261Z,78.34
2022-12-23T16:10:55.971Z,78.49
2022-12-23T16:13:24.186Z,78.31
2022-12-23T16:15:51.919Z,78.44
2022-12-23T16:18:19.550Z,78.34
2022-12-23T16:20:56.537Z,78.29
2022-12-23T16:23:29.249Z,78.43
2022-12-23T16:26:00.209Z,78.38
2022-12-23T16:28:35.181Z,78.12
2022-12-23T16:31:06.848Z,78.12
2022-12-23T16:33:39.698Z,78.22
2022-12-23T16:36:26.466Z,78.11
2022-12-23T16:39:02.289Z,78.11
2022-12-23T16:41:30.011Z,78.18
2022-12-23T16:43:58.456Z,78.28
2022-12-23T16:46:27.831Z,78.17
2022-12-23T16:48:58.944Z,78.06
2022-12-23T16:51:28.683Z,77.94
2022-12-23T16:53:57.689Z,77.98
2022-12-23T16:56:31.744Z,77.96
2022-12-23T16:58:59.471Z,77.98
2022-12-23T17:01:33.650Z,77.96
2022-12-23T17:04:01.326Z,78.17
2022-12-23T17:06:29.154Z,78.01
2022-12-23T17:08:57.022Z,78.06
2022-12-23T17:11:40.655Z,78.17
2022-12-23T17:14:16.169Z,78.26
2022-12-23T17:16:45.635Z,78.38
2022-12-23T17:19:13.479Z,78.35
2022-12-23T17:21:44.152Z,78.20
2022-12-23T17:24:27.805Z,78.32
2022-12-23T17:26:56.989Z,78.41
2022-12-23T17:29:25.033Z,78.34
2022-12-23T17:31:53.158Z,78.29
2022-12-23T17:34:24.164Z,78.39
2022-12-23T17:36:52.867Z,78.42
2022-12-23T17:39:22.332Z,78.52
2022-12-23T17:41:50.106Z,78.58
2022-12-23T17:44:18.619Z,78.58
2022-12-23T17:46:47.084Z,78.27
2022-12-23T17:49:14.984Z,78.27
2022-12-23T17:51:43.303Z,78.21
2022-12-23T17:54:27.495Z,78.20
2022-12-23T17:56:55.155Z,78.26
2022-12-23T17:59:22.843Z,78.15
2022-12-23T18:01:50.854Z,78.22
2022-12-23T18:04:18.722Z,78.33
2022-12-23T18:06:46.387Z,78.17
2022-12-23T18:09:14.032Z,78.17
2022-12-23T18:11:44.729Z,78.22
2022-12-23T18:14:28.192Z,78.35
2022-12-23T18:16:56.101Z,78.37
2022-12-23T18:19:24.420Z,78.42
2022-12-23T18:21:52.810Z,78.35
2022-12-23T18:24:20.526Z,78.48
2022-12-23T18:26:48.201Z,78.37
2022-12-23T18:29:15.890Z,78.46
2022-12-23T18:31:50.901Z,78.36
2022-12-23T18:34:20.349Z,78.30
2022-12-23T18:36:48.425Z,78.45
2022-12-23T18:39:16.862Z,78.45
2022-12-23T18:41:44.537Z,78.62
2022-12-23T18:44:18.556Z,78.65
2022-12-23T18:46:47.283Z,78.59
2022-12-23T18:49:15.005Z,78.78
2022-12-23T18:51:43.360Z,78.79
2022-12-23T18:54:15.568Z,78.69
2022-12-23T18:56:43.737Z,78.69
2022-12-23T18:59:28.969Z,78.52
2022-12-23T19:01:58.507Z,78.48
2022-12-23T19:04:27.471Z,78.54
2022-12-23T19:06:57.111Z,78.53
2022-12-23T19:09:25.059Z,78.32
2022-12-23T19:11:54.040Z,78.45
2022-12-23T19:14:22.313Z,78.56
2022-12-23T19:16:52.275Z,78.38
2022-12-23T19:19:21.346Z,78.48
2022-12-23T19:21:49.093Z,78.48
2022-12-23T19:24:16.811Z,78.49
2022-12-23T19:26:44.517Z,78.53
2022-12-23T19:29:12.361Z,78.58
2022-12-23T19:31:40.396Z,78.57
2022-12-23T19:34:12.907Z,78.53
2022-12-23T19:36:44.463Z,78.47
2022-12-23T19:39:16.566Z,78.69
2022-12-23T19:41:45.523Z,78.72
2022-12-23T19:44:14.198Z,78.80
2022-12-23T19:46:42.228Z,78.87
2022-12-23T19:49:15.665Z,78.74
2022-12-23T19:51:47.336Z,78.72
2022-12-23T19:54:15.432Z,78.88
2022-12-23T19:56:43.288Z,78.71
2022-12-23T19:59:11.903Z,78.76
2022-12-23T20:01:39.651Z,78.75
2022-12-23T20:04:07.360Z,78.81
2022-12-23T20:06:38.422Z,78.80
2022-12-23T20:09:08.742Z,78.53
2022-12-23T20:11:39.843Z,78.55
2022-12-23T20:14:08.935Z,78.53
2022-12-23T20:16:37.981Z,78.44
2022-12-23T20:19:06.660Z,78.52
2022-12-23T20:21:37.553Z,78.50
2022-12-23T20:24:06.281Z,78.60
2022-12-23T20:26:34.437Z,78.70
2022-12-23T20:29:02.194Z,78.69
2022-12-23T20:31:32.681Z,78.68
2022-12-23T20:34:02.372Z,78.73
2022-12-23T20:36:32.459Z,78.65
2022-12-23T20:39:02.066Z,78.74
2022-12-23T20:41:31.704Z,78.69
2022-12-23T20:44:32.580Z,78.87
2022-12-23T20:46:47.749Z,79.10
2022-12-23T20:49:15.559Z,79.07
2022-12-23T20:51:43.346Z,79.07
2022-12-23T20:54:11.063Z,78.97
2022-12-23T20:56:38.724Z,79.03
2022-12-23T20:59:06.402Z,78.90
2022-12-23T21:01:37.910Z,79.02
2022-12-23T21:04:22.705Z,78.84
2022-12-23T21:06:50.506Z,78.70
2022-12-23T21:09:18.162Z,79.02
2022-12-23T21:11:47.716Z,79.00
2022-12-23T21:14:15.877Z,78.97
2022-12-23T21:16:44.325Z,79.04
2022-12-23T21:19:21.213Z,78.78
2022-12-23T21:21:49.970Z,78.87
2022-12-23T21:24:18.838Z,78.74
2022-12-23T21:26:55.619Z,78.55
2022-12-23T21:29:24.140Z,78.61
2022-12-23T21:31:51.997Z,78.57
2022-12-23T21:34:19.709Z,78.53
2022-12-23T21:36:47.690Z,78.66
2022-12-23T21:39:16.627Z,78.50
2022-12-23T21:41:45.665Z,78.64
2022-12-23T21:44:16.100Z,78.92
2022-12-23T21:46:43.915Z,78.74
2022-12-23T21:49:11.985Z,78.74
2022-12-23T21:51:41.245Z,78.80
2022-12-23T21:54:11.425Z,78.67
2022-12-23T21:56:40.627Z,78.74
2022-12-23T21:59:12.622Z,78.68
2022-12-23T22:01:42.335Z,78.66
2022-12-23T22:04:11.359Z,78.50
2022-12-23T22:06:45.425Z,78.77
2022-12-23T22:09:16.177Z,78.88
2022-12-23T22:11:44.766Z,78.63
2022-12-23T22:14:16.035Z,78.66
2022-12-23T22:16:43.933Z,78.69
2022-12-23T22:19:12.471Z,78.76
2022-12-23T22:21:42.476Z,78.48
2022-12-23T22:24:10.547Z,78.43
2022-12-23T22:26:39.424Z,78.67
2022-12-23T22:29:07.250Z,78.79
2022-12-23T22:31:38.370Z,78.85
2022-12-23T22:34:07.592Z,78.38
2022-12-23T22:36:35.554Z,78.35
2022-12-23T22:39:04.620Z,78.32
2022-12-23T22:41:33.356Z,78.20
2022-12-23T22:44:01.090Z,78.36
2022-12-23T22:46:29.407Z,78.40
2022-12-23T22:48:58.802Z,78.44
2022-12-23T22:51:29.477Z,78.40
2022-12-23T22:53:57.883Z,78.44
2022-12-23T22:56:26.207Z,78.60
2022-12-23T22:58:55.243Z,78.66
2022-12-23T23:01:27.073Z,78.71
2022-12-23T23:03:57.442Z,78.56
2022-12-23T23:06:43.604Z,78.65
2022-12-23T23:09:17.734Z,78.64
2022-12-23T23:11:45.883Z,78.62
2022-12-23T23:14:13.720Z,78.52
2022-12-23T23:16:41.632Z,78.58
2022-12-23T23:19:11.287Z,78.69
2022-12-23T23:21:39.058Z,78.66
2022-12-23T23:24:07.401Z,78.69
2022-12-23T23:26:35.161Z,78.65
2022-12-23T23:29:02.903Z,78.74
2022-12-23T23:31:46.172Z,78.65
2022-12-23T23:34:14.308Z,78.52
2022-12-23T23:36:42.229Z,78.62
2022-12-23T23:39:12.197Z,78.43
2022-12-23T23:41:41.043Z,78.50
2022-12-23T23:44:09.932Z,78.55
2022-12-23T23:46:38.547Z,78.32
2022-12-23T23:49:06.387Z,78.23
2022-12-23T23:51:34.270Z,78.22
2022-12-23T23:54:01.921Z,78.27
2022-12-23T23:56:35.713Z,78.34
2022-12-23T23:59:06.160Z,78.29
